Time;durP1;ratioP1;P1;durP2;ratioP2;P2;SDS_P1;SDS_P2;PMS_P1;PMS_P2;Temp;Humidity;BMP_temperature;BMP_pressure;BME280_temperature;BME280_humidity;BME280_pressure;Samples;Min_cycle;Max_cycle;Signal;HPM_P1;HPM_P2
2021/03/26 00:01:55;;;;;;;9.40;1.48;;;;;;;8.13;74.88;101768.56;5059369;28;20048;-46
2021/03/26 00:04:23;;;;;;;9.40;1.60;;;;;;;8.16;74.70;101763.31;5069146;28;20052;-45
2021/03/26 00:06:51;;;;;;;8.60;1.90;;;;;;;8.19;74.22;101761.97;5063153;28;20486;-49
2021/03/26 00:09:22;;;;;;;11.45;2.05;;;;;;;8.20;74.28;101766.41;5050657;28;20049;-49
2021/03/26 00:11:50;;;;;;;10.55;1.90;;;;;;;8.20;73.84;101758.91;5064397;28;20060;-46
2021/03/26 00:14:18;;;;;;;12.30;1.80;;;;;;;8.22;74.12;101762.25;5051123;28;20053;-47
2021/03/26 00:16:46;;;;;;;15.43;2.00;;;;;;;8.21;74.36;101752.25;5064374;28;20048;-50
2021/03/26 00:19:13;;;;;;;13.18;2.80;;;;;;;8.22;74.25;101753.91;5049685;28;20391;-50
2021/03/26 00:21:40;;;;;;;18.40;2.85;;;;;;;8.20;74.47;101745.00;5062513;28;20088;-49
2021/03/26 00:24:08;;;;;;;12.55;2.40;;;;;;;8.18;74.52;101744.44;5052043;28;20095;-44
2021/03/26 00:26:35;;;;;;;15.35;2.25;;;;;;;8.16;74.95;101737.47;5056520;28;20173;-52
2021/03/26 00:29:17;;;;;;;12.98;2.17;;;;;;;8.09;74.98;101731.25;5068826;28;20123;-48
2021/03/26 00:31:44;;;;;;;19.83;2.63;;;;;;;8.08;75.32;101735.13;5060434;28;20402;-52
2021/03/26 00:34:11;;;;;;;22.20;3.38;;;;;;;8.03;75.59;101737.84;5067113;28;20056;-50
2021/03/26 00:36:39;;;;;;;12.77;2.58;;;;;;;8.01;75.46;101734.50;5062389;28;20118;-50
2021/03/26 00:39:07;;;;;;;14.55;2.05;;;;;;;7.99;75.51;101725.59;5064772;28;20106;-48
2021/03/26 00:41:35;;;;;;;10.52;2.00;;;;;;;7.95;75.85;101731.69;5064671;28;20115;-49
2021/03/26 00:44:02;;;;;;;12.32;2.03;;;;;;;7.94;76.00;101727.22;5061997;28;20053;-50
2021/03/26 00:46:30;;;;;;;17.10;3.10;;;;;;;7.92;76.33;101728.56;5067072;28;20122;-50
2021/03/26 00:48:58;;;;;;;16.65;3.47;;;;;;;7.91;76.35;101724.97;5060914;28;20052;-47
2021/03/26 00:51:26;;;;;;;15.65;2.33;;;;;;;7.89;76.27;101720.75;5067033;28;20051;-47
2021/03/26 00:53:52;;;;;;;14.45;2.58;;;;;;;7.87;76.83;101715.44;5059666;28;20496;-50
2021/03/26 00:56:19;;;;;;;11.63;2.30;;;;;;;7.87;76.44;101717.41;5067499;28;20045;-46
2021/03/26 00:58:46;;;;;;;12.98;2.28;;;;;;;7.87;76.73;101715.44;5058993;28;20086;-46
2021/03/26 01:01:13;;;;;;;10.25;2.05;;;;;;;7.87;76.85;101717.41;5068113;28;20040;-46
2021/03/26 01:03:40;;;;;;;13.13;2.22;;;;;;;7.88;76.35;101716.28;5057688;28;20044;-47
2021/03/26 01:06:09;;;;;;;13.60;1.92;;;;;;;7.89;76.42;101713.25;5070248;28;20041;-45
2021/03/26 01:08:41;;;;;;;11.25;1.70;;;;;;;7.89;76.12;101704.09;5056574;28;20171;-46
2021/03/26 01:11:15;;;;;;;9.10;1.67;;;;;;;7.90;76.22;101694.66;5072970;28;20049;-49
2021/03/26 01:13:43;;;;;;;9.57;2.05;;;;;;;7.92;75.92;101701.63;5059132;28;20048;-47
2021/03/26 01:16:11;;;;;;;7.13;1.98;;;;;;;7.92;76.26;101704.41;5052780;28;20044;-51
2021/03/26 01:18:42;;;;;;;8.43;1.75;;;;;;;7.93;75.86;101691.34;5064976;28;20047;-46
2021/03/26 01:21:16;;;;;;;9.15;2.30;;;;;;;7.94;75.98;101687.47;5054466;28;20072;-47
2021/03/26 01:23:46;;;;;;;10.65;2.15;;;;;;;7.95;76.05;101691.94;5064390;28;20048;-48
2021/03/26 01:26:14;;;;;;;9.32;1.95;;;;;;;7.97;76.06;101683.34;5067826;28;20052;-53
2021/03/26 01:29:00;;;;;;;11.77;1.85;;;;;;;7.94;75.90;101688.31;5060601;28;20098;-47
2021/03/26 01:31:35;;;;;;;13.65;2.80;;;;;;;7.98;76.01;101688.63;5034148;28;20049;-48
2021/03/26 01:34:05;;;;;;;12.95;2.50;;;;;;;7.99;76.17;101681.97;5076816;28;20044;-52
2021/03/26 01:36:36;;;;;;;14.63;2.25;;;;;;;7.98;76.47;101683.06;5054199;28;20435;-47
2021/03/26 01:39:08;;;;;;;14.63;2.15;;;;;;;7.98;76.17;101685.84;5064771;28;20120;-47
2021/03/26 01:41:42;;;;;;;17.65;2.40;;;;;;;7.97;76.27;101675.84;5054039;28;20133;-49
2021/03/26 01:44:28;;;;;;;21.55;3.15;;;;;;;7.98;76.37;101680.28;5065563;28;20053;-47
2021/03/26 01:47:10;;;;;;;10.23;2.00;;;;;;;8.01;76.53;101673.34;5032158;28;20521;-47
2021/03/26 01:49:37;;;;;;;12.13;2.28;;;;;;;8.02;76.60;101675.03;5062550;28;20402;-48
2021/03/26 01:52:07;;;;;;;14.23;2.42;;;;;;;8.06;76.50;101677.03;5054673;28;20049;-49
2021/03/26 01:54:36;;;;;;;12.20;2.45;;;;;;;8.12;76.57;101680.72;5061835;28;20512;-50
2021/03/26 01:57:11;;;;;;;12.45;2.40;;;;;;;8.15;76.23;101674.63;5053715;28;20098;-49
2021/03/26 01:59:43;;;;;;;9.70;2.38;;;;;;;8.17;75.96;101677.97;5061937;28;20068;-47
2021/03/26 02:02:17;;;;;;;12.35;2.25;;;;;;;8.21;76.01;101670.78;5054911;28;20045;-47
2021/03/26 02:05:23;;;;;;;10.32;2.00;;;;;;;8.23;76.05;101668.56;5016380;28;20093;-49
2021/03/26 02:08:11;;;;;;;14.83;2.47;;;;;;;8.23;75.91;101665.78;5032804;28;20119;-47
2021/03/26 02:10:49;;;;;;;13.23;2.63;;;;;;;8.23;76.09;101655.50;5057593;28;20365;-47
2021/03/26 02:13:23;;;;;;;10.80;2.38;;;;;;;8.24;75.89;101659.97;5073203;28;20044;-48
2021/03/26 02:15:52;;;;;;;15.57;3.20;;;;;;;8.27;75.67;101655.81;5056823;28;20315;-47
2021/03/26 02:18:23;;;;;;;15.13;2.90;;;;;;;8.29;75.85;101659.19;5071953;28;20082;-48
2021/03/26 02:20:55;;;;;;;14.13;2.92;;;;;;;8.28;76.17;101669.47;5058730;28;20452;-51
2021/03/26 02:23:25;;;;;;;14.48;2.97;;;;;;;8.28;76.00;101661.13;5031736;28;20053;-48
2021/03/26 02:26:08;;;;;;;14.13;2.70;;;;;;;8.27;76.10;101653.03;5052987;28;20059;-48
2021/03/26 02:28:35;;;;;;;12.23;3.08;;;;;;;8.25;76.37;101646.91;5072488;28;20059;-49
2021/03/26 02:31:22;;;;;;;10.35;2.50;;;;;;;8.24;76.54;101656.34;5058236;28;20045;-49
2021/03/26 02:33:50;;;;;;;12.20;2.90;;;;;;;8.26;76.25;101645.78;5072750;28;20052;-50
2021/03/26 02:36:41;;;;;;;10.25;2.45;;;;;;;8.28;76.46;101651.94;5057047;28;20037;-52
2021/03/26 02:39:26;;;;;;;9.88;2.55;;;;;;;8.27;76.48;101651.09;5029954;28;20060;-47
2021/03/26 02:42:00;;;;;;;8.23;2.13;;;;;;;8.29;76.09;101648.91;5059834;28;20489;-49
2021/03/26 02:45:00;;;;;;;9.95;2.10;;;;;;;8.32;76.27;101646.69;5069369;28;20367;-48
2021/03/26 02:47:53;;;;;;;12.95;2.50;;;;;;;8.29;77.00;101657.22;5048049;28;20056;-48
2021/03/26 02:50:47;;;;;;;10.68;2.35;;;;;;;8.26;78.32;101645.78;5068904;28;20044;-55
2021/03/26 02:53:25;;;;;;;13.98;3.10;;;;;;;8.13;79.59;101637.91;5054412;28;20106;-51
2021/03/26 02:55:59;;;;;;;10.40;3.30;;;;;;;8.04;80.29;101637.53;5067945;28;20029;-51
2021/03/26 02:58:37;;;;;;;19.35;4.50;;;;;;;7.97;80.68;101630.53;5064038;28;20497;-51
2021/03/26 03:01:24;;;;;;;10.07;2.83;;;;;;;7.88;81.31;101628.22;5065456;28;20037;-52
2021/03/26 03:03:57;;;;;;;14.32;3.30;;;;;;;7.86;81.61;101633.19;5065225;28;20102;-50
2021/03/26 03:06:30;;;;;;;8.40;2.53;;;;;;;7.82;81.94;101620.91;5066350;28;20106;-52
2021/03/26 03:09:23;;;;;;;12.20;3.15;;;;;;;7.82;81.84;101617.31;5059603;28;20060;-49
2021/03/26 03:11:55;;;;;;;12.25;3.17;;;;;;;7.84;82.05;101613.16;5061929;28;20492;-48
2021/03/26 03:14:28;;;;;;;7.82;2.78;;;;;;;7.84;81.75;101610.38;5065917;28;20405;-54
2021/03/26 03:17:01;;;;;;;12.50;3.40;;;;;;;7.88;81.98;101608.75;5064366;28;20048;-54
2021/03/26 03:19:38;;;;;;;11.48;3.20;;;;;;;7.88;81.86;101613.47;5066136;28;20143;-50
2021/03/26 03:22:11;;;;;;;10.35;3.08;;;;;;;7.88;81.89;101594.03;5064185;28;20404;-52
2021/03/26 03:24:40;;;;;;;11.10;3.33;;;;;;;7.87;81.47;101587.63;5065713;28;20048;-55
2021/03/26 03:27:22;;;;;;;10.45;3.10;;;;;;;7.89;81.29;101592.94;5048166;28;20640;-54
2021/03/26 03:29:58;;;;;;;11.18;3.13;;;;;;;7.90;81.13;101589.06;5057301;28;20045;-53
2021/03/26 03:32:45;;;;;;;7.70;3.30;;;;;;;7.88;81.43;101591.25;5059725;28;20517;-55
2021/03/26 03:35:19;;;;;;;11.85;3.15;;;;;;;7.92;80.81;101581.28;5055380;28;20056;-53
2021/03/26 03:37:57;;;;;;;15.15;3.92;;;;;;;7.94;80.47;101590.22;5059884;28;20040;-49
2021/03/26 03:40:30;;;;;;;10.98;3.17;;;;;;;7.95;79.66;101587.16;5054565;28;20049;-50
2021/03/26 03:43:05;;;;;;;8.45;2.88;;;;;;;7.99;79.20;101586.66;5059724;28;20052;-53
2021/03/26 03:45:40;;;;;;;15.80;3.10;;;;;;;8.02;78.61;101574.97;5055461;28;20460;-53
2021/03/26 03:48:29;;;;;;;10.75;3.10;;;;;;;8.07;78.42;101575.84;5059673;28;20086;-48
2021/03/26 03:51:02;;;;;;;9.63;2.90;;;;;;;8.11;78.17;101577.00;5052232;28;20063;-51
2021/03/26 03:53:35;;;;;;;8.40;2.70;;;;;;;8.15;77.43;101577.31;5059370;28;20082;-52
2021/03/26 03:56:25;;;;;;;9.20;3.03;;;;;;;8.18;77.57;101574.84;5052877;28;20548;-55
2021/03/26 03:59:00;;;;;;;10.05;3.53;;;;;;;8.20;76.00;101582.91;5062859;28;20125;-53
2021/03/26 04:01:33;;;;;;;9.55;3.72;;;;;;;8.29;75.72;101584.09;5050153;28;20045;-55
2021/03/26 04:04:06;;;;;;;9.45;4.00;;;;;;;8.35;75.13;101576.69;5062501;28;20049;-58
2021/03/26 04:06:39;;;;;;;;;;;;;;;8.34;73.90;101577.78;5051592;28;20048;-54
2021/03/26 04:09:10;;;;;;;10.90;3.30;;;;;;;8.40;75.35;101565.56;5060314;28;19920;-57
2021/03/26 04:11:44;;;;;;;11.05;3.65;;;;;;;8.43;74.62;101581.72;5051976;28;20052;-52
2021/03/26 04:14:35;;;;;;;9.00;3.75;;;;;;;8.48;74.30;101565.06;5055783;28;20118;-53
2021/03/26 04:17:07;;;;;;;8.77;4.17;;;;;;;8.52;74.13;101567.06;5051232;28;20414;-58
2021/03/26 04:19:39;;;;;;;11.52;4.30;;;;;;;8.56;74.15;101571.00;5061659;28;20053;-55
2021/03/26 04:22:11;;;;;;;8.02;3.42;;;;;;;8.56;74.03;101565.44;5051342;28;20065;-58
2021/03/26 04:25:03;;;;;;;6.32;3.42;;;;;;;8.54;74.27;101564.84;5060586;28;20096;-55
2021/03/26 04:27:40;;;;;;;9.27;4.07;;;;;;;8.55;74.50;101563.75;5031410;28;20049;-57
2021/03/26 04:30:29;;;;;;;9.25;4.40;;;;;;;8.57;74.64;101566.25;5055042;28;20157;-57
2021/03/26 04:33:05;;;;;;;9.50;4.40;;;;;;;8.55;74.73;101569.31;5069787;28;20048;-57
2021/03/26 04:35:33;;;;;;;13.50;5.55;;;;;;;8.57;74.69;101557.91;5062319;28;20049;-54
2021/03/26 04:38:14;;;;;;;12.47;4.90;;;;;;;8.57;74.94;101557.91;5049763;28;20098;-55
2021/03/26 04:40:47;;;;;;;11.57;5.38;;;;;;;8.56;74.86;101565.44;5064345;28;20303;-56
2021/03/26 04:43:25;;;;;;;9.60;4.63;;;;;;;8.57;75.12;101572.66;5049016;28;20055;-56
2021/03/26 04:46:02;;;;;;;10.93;5.22;;;;;;;8.55;75.20;101554.56;5056867;28;20048;-55
2021/03/26 04:49:00;;;;;;;14.57;5.40;;;;;;;8.51;75.34;101551.47;5053186;28;20061;-56
2021/03/26 04:51:37;;;;;;;12.30;5.07;;;;;;;8.50;75.65;101543.41;5060860;28;20041;-56
2021/03/26 04:54:31;;;;;;;16.02;5.50;;;;;;;8.47;75.96;101555.06;5056113;28;20136;-51
2021/03/26 04:57:07;;;;;;;10.70;5.25;;;;;;;8.46;75.75;101547.81;5065004;28;20087;-55
2021/03/26 04:59:45;;;;;;;10.90;5.20;;;;;;;8.47;76.01;101544.78;5055935;28;20048;-50
2021/03/26 05:02:21;;;;;;;14.55;5.63;;;;;;;8.45;76.05;101558.09;5052064;28;20056;-53
2021/03/26 05:04:55;;;;;;;9.05;5.05;;;;;;;8.43;76.05;101540.00;5069609;28;20095;-54
2021/03/26 05:07:41;;;;;;;10.80;4.90;;;;;;;8.43;76.23;101549.19;5053011;28;20044;-55
2021/03/26 05:10:14;;;;;;;10.25;4.55;;;;;;;8.42;76.14;101541.94;5070184;28;20052;-53
2021/03/26 05:12:49;;;;;;;11.05;4.80;;;;;;;8.43;75.75;101538.06;5043068;28;20055;-55
2021/03/26 05:15:28;;;;;;;10.55;4.60;;;;;;;8.45;75.91;101546.97;5056262;28;20132;-55
2021/03/26 05:18:12;;;;;;;11.77;5.18;;;;;;;8.46;76.06;101553.38;5060997;28;20494;-55
2021/03/26 05:20:48;;;;;;;10.52;4.80;;;;;;;8.47;75.81;101541.16;5056422;28;20473;-56
2021/03/26 05:23:28;;;;;;;13.85;5.10;;;;;;;8.43;76.00;101540.84;5061255;28;20509;-53
2021/03/26 05:25:58;;;;;;;11.18;5.10;;;;;;;8.43;75.95;101542.78;5059006;28;20386;-54
2021/03/26 05:28:39;;;;;;;14.85;5.88;;;;;;;8.39;75.94;101534.16;5065249;28;20056;-50
2021/03/26 05:31:30;;;;;;;10.25;4.68;;;;;;;8.40;75.76;101529.41;5066647;28;20055;-55
2021/03/26 05:34:05;;;;;;;13.13;5.53;;;;;;;8.36;75.82;101534.69;5066506;28;20052;-50
2021/03/26 05:36:36;;;;;;;13.73;5.50;;;;;;;8.38;75.90;101526.09;5064939;28;20053;-54
2021/03/26 05:39:26;;;;;;;11.50;5.32;;;;;;;8.34;75.75;101517.44;5068930;28;20583;-50
2021/03/26 05:42:27;;;;;;;13.32;5.70;;;;;;;8.33;75.89;101526.06;5061744;28;20582;-49
2021/03/26 05:45:10;;;;;;;13.90;5.97;;;;;;;8.31;76.25;101523.50;5072299;28;20109;-48
2021/03/26 05:48:34;;;;;;;12.90;6.22;;;;;;;8.33;76.21;101521.31;5038945;28;20165;-51
2021/03/26 05:51:47;;;;;;;12.30;5.82;;;;;;;8.35;76.18;101513.56;5069276;28;20084;-54
2021/03/26 05:54:26;;;;;;;14.93;6.22;;;;;;;8.29;76.53;101528.50;4966639;28;20618;-51
2021/03/26 05:57:08;;;;;;;13.10;5.78;;;;;;;8.31;76.54;101517.94;5062002;28;20064;-52
2021/03/26 05:59:58;;;;;;;14.82;5.72;;;;;;;8.34;76.51;101514.66;5064601;28;20048;-50
2021/03/26 06:03:05;;;;;;;12.18;6.72;;;;;;;8.30;76.74;101522.66;5063509;28;20045;-49
2021/03/26 06:06:18;;;;;;;15.75;6.88;;;;;;;8.32;76.75;101525.22;5033923;28;20506;-54
2021/03/26 06:09:33;;;;;;;11.63;5.78;;;;;;;8.32;77.03;101528.00;5060994;28;20068;-52
2021/03/26 06:12:46;;;;;;;13.25;6.47;;;;;;;8.35;77.12;101521.91;5056263;28;20114;-52
2021/03/26 06:16:07;;;;;;;13.95;6.20;;;;;;;8.37;77.21;101525.25;5056308;28;20040;-50
2021/03/26 06:19:28;;;;;;;13.07;6.28;;;;;;;8.35;77.62;101521.91;5042638;28;20525;-49
2021/03/26 06:23:07;;;;;;;11.90;6.10;;;;;;;8.36;78.02;101518.00;5068970;28;20068;-51
2021/03/26 06:26:32;;;;;;;11.75;6.25;;;;;;;8.44;78.34;101516.66;5053818;28;20486;-52
2021/03/26 06:29:17;;;;;;;12.95;6.35;;;;;;;8.46;78.49;101511.66;5065612;28;20055;-53
2021/03/26 06:32:10;;;;;;;12.95;5.72;;;;;;;8.52;78.44;101508.66;5033454;28;20107;-50
2021/03/26 06:35:06;;;;;;;11.25;6.45;;;;;;;8.55;78.61;101512.84;5060001;28;20243;-48
2021/03/26 06:37:47;;;;;;;12.68;5.68;;;;;;;8.60;78.67;101510.91;5069185;28;20464;-51
2021/03/26 06:40:32;;;;;;;12.95;5.07;;;;;;;8.64;78.73;101503.69;5061897;28;20492;-51
2021/03/26 06:43:13;;;;;;;12.82;5.93;;;;;;;8.73;78.65;101503.19;5054774;28;20072;-52
2021/03/26 06:45:54;;;;;;;14.52;5.50;;;;;;;8.78;78.50;101506.84;5063583;28;20481;-49
2021/03/26 06:48:27;;;;;;;13.73;5.45;;;;;;;8.81;78.56;101511.00;5054023;28;20053;-49
2021/03/26 06:51:07;;;;;;;15.57;6.88;;;;;;;8.88;78.44;101500.47;5047444;28;20110;-50
2021/03/26 06:53:40;;;;;;;21.10;8.63;;;;;;;8.91;78.22;101499.94;5069190;28;20076;-49
2021/03/26 06:56:19;;;;;;;;;;;;;;;8.89;78.17;101502.97;5051156;28;20044;-48
2021/03/26 06:59:33;;;;;;;13.70;5.28;;;;;;;8.96;77.98;101498.00;5068776;28;19962;-51
2021/03/26 07:02:35;;;;;;;11.43;5.03;;;;;;;8.99;77.60;101496.63;5062853;28;20547;-46
2021/03/26 07:05:34;;;;;;;14.02;5.40;;;;;;;9.07;77.21;101498.03;5033874;28;20056;-53
2021/03/26 07:08:28;;;;;;;10.45;4.57;;;;;;;9.14;76.98;101493.88;5031978;28;20076;-49
2021/03/26 07:11:08;;;;;;;11.45;5.18;;;;;;;9.17;77.03;101495.28;5063501;28;20485;-49
2021/03/26 07:14:11;;;;;;;10.98;4.78;;;;;;;9.23;76.34;101488.59;5052695;28;20049;-50
2021/03/26 07:17:19;;;;;;;9.30;4.88;;;;;;;9.28;75.63;101492.25;5021210;28;20103;-51
2021/03/26 07:20:01;;;;;;;8.90;4.55;;;;;;;9.37;75.31;101492.53;5051014;28;20498;-47
2021/03/26 07:23:04;;;;;;;10.93;5.03;;;;;;;9.51;74.72;101495.63;5057381;28;20098;-49
2021/03/26 07:25:45;;;;;;;9.63;4.50;;;;;;;9.60;74.11;101507.88;5053770;28;20044;-48
2021/03/26 07:28:25;;;;;;;12.25;4.15;;;;;;;9.68;73.44;101507.34;5069616;28;20048;-49
2021/03/26 07:31:04;;;;;;;9.00;4.70;;;;;;;9.73;73.38;101490.63;5060094;28;20044;-48
2021/03/26 07:33:36;;;;;;;9.60;4.43;;;;;;;9.79;72.98;101495.06;5070824;28;20055;-50
2021/03/26 07:36:28;;;;;;;8.30;3.97;;;;;;;9.86;72.10;101501.22;5059523;28;20041;-51
2021/03/26 07:39:17;;;;;;;9.75;4.63;;;;;;;9.87;72.11;101499.25;5029738;28;20064;-52
2021/03/26 07:42:04;;;;;;;12.98;4.30;;;;;;;9.93;71.76;101500.94;5064305;28;20482;-50
2021/03/26 07:45:02;;;;;;;8.25;4.60;;;;;;;10.18;71.01;101486.16;5051454;28;20132;-48
2021/03/26 07:47:44;;;;;;;11.05;4.82;;;;;;;10.54;69.96;101482.19;5060027;28;20049;-50
2021/03/26 07:50:28;;;;;;;;;;;;;;;10.79;68.61;101486.00;5053824;28;20531;-49
2021/03/26 07:53:04;;;;;;;8.10;4.53;;;;;;;11.01;69.13;101494.81;5061816;28;19927;-50
2021/03/26 07:55:39;;;;;;;9.48;4.70;;;;;;;11.21;68.70;101489.13;5053516;28;20076;-49
2021/03/26 07:58:39;;;;;;;10.77;5.07;;;;;;;11.32;67.31;101484.31;5061974;28;20103;-49
2021/03/26 08:01:15;;;;;;;8.45;5.40;;;;;;;11.60;68.01;101477.97;5054814;28;20049;-48
2021/03/26 08:04:04;;;;;;;11.20;5.15;;;;;;;11.94;66.40;101489.22;5058429;28;20045;-50
2021/03/26 08:06:52;;;;;;;9.52;4.88;;;;;;;12.15;66.15;101486.22;5056815;28;20509;-46
2021/03/26 08:09:36;;;;;;;9.55;5.20;;;;;;;12.19;65.33;101488.09;5055383;28;20045;-45
2021/03/26 08:12:16;;;;;;;9.13;4.38;;;;;;;12.38;64.79;101491.03;5060075;28;20049;-47
2021/03/26 08:15:19;;;;;;;9.32;4.55;;;;;;;12.65;63.85;101498.81;5051014;28;20459;-51
2021/03/26 08:17:59;;;;;;;10.45;4.88;;;;;;;12.95;63.98;101486.44;5064405;28;20076;-48
2021/03/26 08:20:34;;;;;;;11.43;4.75;;;;;;;13.26;63.49;101486.88;5049414;28;20505;-51
2021/03/26 08:23:15;;;;;;;17.38;5.05;;;;;;;13.40;62.19;101482.16;5064518;28;20044;-54
2021/03/26 08:25:45;;;;;;;13.63;4.93;;;;;;;13.50;61.81;101495.22;5059438;28;20045;-55
2021/03/26 08:28:31;;;;;;;10.18;4.55;;;;;;;13.80;60.98;101491.91;5054999;28;20091;-53
2021/03/26 08:31:20;;;;;;;11.98;4.43;;;;;;;14.00;60.10;101483.16;5070406;28;20051;-51
2021/03/26 08:34:08;;;;;;;10.98;4.35;;;;;;;13.99;59.89;101492.72;5057622;28;20048;-48
2021/03/26 08:36:43;;;;;;;8.73;3.42;;;;;;;14.00;58.87;101488.78;5066794;28;20114;-54
2021/03/26 08:39:24;;;;;;;10.10;4.03;;;;;;;14.13;58.09;101488.00;5058962;28;20060;-51
2021/03/26 08:41:59;;;;;;;10.93;4.00;;;;;;;14.38;58.97;101481.09;5052812;28;20044;-50
2021/03/26 08:44:27;;;;;;;10.35;4.60;;;;;;;14.44;58.32;101473.41;5061892;28;20511;-54
2021/03/26 08:46:58;;;;;;;14.77;5.30;;;;;;;14.47;58.50;101486.84;5052598;28;20077;-52
2021/03/26 08:49:35;;;;;;;14.73;5.72;;;;;;;14.62;57.50;101486.53;5057462;28;20049;-51
2021/03/26 08:52:23;;;;;;;11.63;4.68;;;;;;;14.78;56.61;101481.47;5052193;28;20057;-47
2021/03/26 08:55:06;;;;;;;10.27;4.25;;;;;;;14.85;56.86;101476.25;5060383;28;20048;-53
2021/03/26 08:57:46;;;;;;;12.55;4.72;;;;;;;15.03;56.52;101494.97;5052295;28;20063;-50
2021/03/26 09:00:25;;;;;;;9.73;4.28;;;;;;;14.90;55.93;101487.38;5048762;28;20051;-49
2021/03/26 09:03:34;;;;;;;11.85;4.75;;;;;;;14.23;54.93;101480.53;5067168;28;20129;-50
2021/03/26 09:06:36;;;;;;;11.40;4.70;;;;;;;13.43;58.14;101485.22;5051721;28;20060;-51
2021/03/26 09:09:22;;;;;;;11.15;4.45;;;;;;;12.97;59.42;101498.19;5059191;28;20501;-49
2021/03/26 09:12:06;;;;;;;10.18;4.65;;;;;;;12.63;59.98;101487.94;5069357;28;20052;-48
2021/03/26 09:14:51;;;;;;;11.85;4.75;;;;;;;12.43;61.53;101490.94;5056448;28;20589;-50
2021/03/26 09:17:23;;;;;;;12.00;5.05;;;;;;;12.14;62.56;101504.97;5029803;28;20506;-48
2021/03/26 09:19:56;;;;;;;10.77;4.57;;;;;;;11.97;62.43;101494.22;5062640;28;20386;-49
2021/03/26 09:22:44;;;;;;;9.98;4.68;;;;;;;12.00;63.15;101488.00;5050406;28;20080;-53
2021/03/26 09:25:27;;;;;;;9.30;5.07;;;;;;;11.91;63.13;101480.56;5059983;28;20102;-53
2021/03/26 09:28:00;;;;;;;12.02;5.55;;;;;;;11.82;63.68;101476.72;5050825;28;20079;-47
2021/03/26 09:30:32;;;;;;;10.40;5.28;;;;;;;11.85;63.83;101476.13;5056122;28;20056;-51
2021/03/26 09:33:02;;;;;;;9.95;4.97;;;;;;;11.83;64.08;101487.59;5073590;28;20378;-52
2021/03/26 09:35:40;;;;;;;11.88;5.25;;;;;;;11.85;63.96;101476.97;5058921;28;20143;-51
2021/03/26 09:38:20;;;;;;;11.85;5.45;;;;;;;11.98;63.84;101486.66;5073338;28;20052;-49
2021/03/26 09:40:55;;;;;;;10.25;5.53;;;;;;;12.40;63.17;101477.53;5059323;28;20049;-55
2021/03/26 09:43:28;;;;;;;13.20;5.55;;;;;;;12.98;61.40;101483.88;5073646;28;20060;-46
2021/03/26 09:46:07;;;;;;;11.20;4.68;;;;;;;13.45;59.08;101471.72;5057601;28;20049;-51
2021/03/26 09:48:58;;;;;;;11.35;4.63;;;;;;;13.97;57.45;101478.19;5073751;28;20079;-49
2021/03/26 09:51:37;;;;;;;13.30;5.30;;;;;;;14.20;56.61;101486.75;5061707;28;20569;-50
2021/03/26 09:54:25;;;;;;;12.13;4.53;;;;;;;14.41;55.28;101483.28;5070849;28;20075;-49
2021/03/26 09:57:05;;;;;;;12.10;4.50;;;;;;;14.57;55.83;101468.97;5062623;28;20482;-47
2021/03/26 09:59:44;;;;;;;10.52;4.43;;;;;;;14.64;55.48;101464.59;5055018;28;20049;-48
2021/03/26 10:02:24;;;;;;;10.93;4.47;;;;;;;14.88;54.33;101471.97;5064489;28;20049;-50
2021/03/26 10:05:00;;;;;;;8.90;4.10;;;;;;;15.10;54.11;101469.25;5054459;28;20052;-53
2021/03/26 10:07:39;;;;;;;9.20;4.60;;;;;;;15.40;53.92;101467.69;5051034;28;20421;-49
2021/03/26 10:13:04;;;;;;;10.45;4.65;;;;;;;15.71;52.60;101459.41;5051735;28;20082;-50
2021/03/26 10:15:36;;;;;;;13.32;5.03;;;;;;;15.95;52.25;101454.28;5068482;28;20053;-50
2021/03/26 10:18:10;;;;;;;11.32;4.93;;;;;;;16.18;51.26;101457.91;5064231;28;20057;-48
2021/03/26 10:20:45;;;;;;;11.13;5.00;;;;;;;16.42;50.38;101469.63;5068814;28;20040;-50
2021/03/26 10:23:24;;;;;;;11.15;4.93;;;;;;;16.30;50.54;101454.50;5064163;28;20083;-50
2021/03/26 10:26:03;;;;;;;11.70;4.80;;;;;;;16.11;50.72;101461.19;5067000;28;20106;-50
2021/03/26 10:29:14;;;;;;;12.25;5.80;;;;;;;16.15;50.61;101455.75;5060223;28;20075;-48
2021/03/26 10:31:45;;;;;;;12.52;5.03;;;;;;;16.14;51.23;101451.25;4980257;28;20121;-53
2021/03/26 10:34:16;;;;;;;12.00;4.70;;;;;;;16.39;50.45;101450.53;5038728;28;20902;-50
2021/03/26 10:36:55;;;;;;;12.10;5.45;;;;;;;16.48;50.18;101444.97;5061997;28;20493;-51
2021/03/26 10:39:27;;;;;;;13.02;4.78;;;;;;;16.40;49.68;101434.47;5056124;28;20056;-49
2021/03/26 10:41:59;;;;;;;;;;;;;;;16.40;47.81;101432.50;5060243;28;20164;-47
2021/03/26 10:44:38;;;;;;;11.17;4.60;;;;;;;16.25;48.68;101444.19;5056608;28;19928;-50
2021/03/26 10:47:15;;;;;;;9.25;3.58;;;;;;;16.30;49.46;101415.06;5060354;28;20570;-51
2021/03/26 10:49:46;;;;;;;11.02;3.90;;;;;;;16.46;48.99;101410.66;5055141;28;20489;-50
2021/03/26 10:52:18;;;;;;;7.82;3.53;;;;;;;16.32;48.21;101412.75;5059942;28;20397;-50
2021/03/26 10:54:51;;;;;;;8.80;3.40;;;;;;;16.08;47.82;101411.16;5056874;28;20073;-50
2021/03/26 10:57:35;;;;;;;;;;;;;;;16.01;47.11;101402.31;5058888;28;20122;-51
2021/03/26 11:00:07;;;;;;;10.85;3.97;;;;;;;16.03;48.62;101405.63;5055848;28;20006;-53
2021/03/26 11:02:55;;;;;;;9.32;3.90;;;;;;;15.93;46.40;101405.94;5058958;28;20072;-50
2021/03/26 11:05:31;;;;;;;9.43;3.97;;;;;;;16.10;47.51;101400.38;5054716;28;20053;-52
2021/03/26 11:08:26;;;;;;;10.93;4.68;;;;;;;15.64;46.54;101385.88;5061910;28;20044;-50
2021/03/26 11:10:58;;;;;;;8.82;4.10;;;;;;;15.60;48.66;101396.91;5018288;28;20045;-51
2021/03/26 11:13:38;;;;;;;10.45;4.70;;;;;;;15.75;47.68;101384.47;5061098;28;20555;-52
2021/03/26 11:16:14;;;;;;;14.18;4.95;;;;;;;15.90;47.34;101381.25;5031671;28;20077;-50
2021/03/26 11:18:54;;;;;;;12.35;4.43;;;;;;;15.63;47.24;101382.22;5054554;28;20053;-50
2021/03/26 11:21:23;;;;;;;10.52;4.18;;;;;;;15.25;48.37;101372.47;5031835;28;20083;-52
2021/03/26 11:23:57;;;;;;;8.13;4.07;;;;;;;14.78;48.02;101371.88;5053900;28;20044;-51
2021/03/26 11:26:30;;;;;;;10.98;4.95;;;;;;;14.64;49.56;101359.81;5060580;28;20072;-48
2021/03/26 11:29:06;;;;;;;9.55;4.88;;;;;;;14.75;49.89;101367.72;5056737;28;20110;-51
2021/03/26 11:31:38;;;;;;;9.73;4.05;;;;;;;14.82;49.60;101364.47;5029057;28;20486;-50
2021/03/26 11:34:18;;;;;;;9.23;3.65;;;;;;;14.86;48.96;101364.66;5059668;28;20094;-53
2021/03/26 11:36:58;;;;;;;8.55;3.20;;;;;;;15.11;48.01;101355.66;5031692;28;20057;-48
2021/03/26 11:39:33;;;;;;;7.20;3.40;;;;;;;15.10;48.61;101363.25;5062156;28;20516;-47
2021/03/26 11:42:23;;;;;;;7.57;3.35;;;;;;;14.96;48.10;101372.88;5031608;28;20133;-46
2021/03/26 11:44:56;;;;;;;10.00;3.67;;;;;;;14.47;49.35;101357.66;5056812;28;20049;-51
2021/03/26 11:47:33;;;;;;;13.73;3.58;;;;;;;14.16;48.73;101381.88;5071182;28;20032;-50
2021/03/26 11:50:16;;;;;;;12.40;3.72;;;;;;;14.07;50.52;101362.94;5064446;28;20425;-52
2021/03/26 11:52:48;;;;;;;11.52;4.32;;;;;;;13.78;50.82;101359.59;5050799;28;20044;-48
2021/03/26 11:55:28;;;;;;;13.05;4.90;;;;;;;13.86;51.58;101360.81;5055361;28;20051;-50
2021/03/26 11:58:02;;;;;;;14.95;5.25;;;;;;;14.00;51.14;101365.31;5070948;28;20056;-48
2021/03/26 12:00:31;;;;;;;11.43;4.70;;;;;;;14.13;51.20;101364.50;5056570;28;20048;-49
2021/03/26 12:03:05;;;;;;;10.90;4.20;;;;;;;14.26;50.43;101356.38;5070793;28;20048;-50
2021/03/26 12:06:03;;;;;;;11.32;4.32;;;;;;;14.22;50.48;101360.97;5055630;28;20059;-55
2021/03/26 12:08:37;;;;;;;10.82;5.22;;;;;;;14.07;51.10;101351.72;5069504;28;20106;-48
2021/03/26 12:11:10;;;;;;;13.65;5.00;;;;;;;13.97;51.45;101363.16;5059213;28;20519;-50
2021/03/26 12:13:45;;;;;;;12.38;4.75;;;;;;;13.84;52.38;101358.31;5068963;28;20091;-50
2021/03/26 12:16:18;;;;;;;13.65;4.93;;;;;;;13.77;52.98;101353.13;5058562;28;20045;-54
2021/03/26 12:18:51;;;;;;;13.77;5.80;;;;;;;13.66;53.15;101348.84;5069676;28;20052;-51
2021/03/26 12:21:31;;;;;;;10.73;5.32;;;;;;;13.69;53.24;101350.19;5057032;28;20040;-46
2021/03/26 12:24:08;;;;;;;10.65;5.03;;;;;;;13.68;53.59;101354.13;5069501;28;20391;-51
2021/03/26 12:26:43;;;;;;;10.68;4.90;;;;;;;13.52;53.80;101338.72;5052258;28;20049;-51